createdAt,value
2022-10-30T00:00:57.332Z,62.27
2022-10-30T00:03:23.816Z,67.19
2022-10-30T00:05:51.928Z,69.99
2022-10-30T00:08:20.543Z,72.14
2022-10-30T00:10:47.711Z,69.92
2022-10-30T00:13:14.255Z,64.54
2022-10-30T00:15:47.273Z,75.90
2022-10-30T00:18:14.262Z,62.81
2022-10-30T00:20:40.646Z,77.09
2022-10-30T00:23:07.086Z,63.41
2022-10-30T00:25:36.156Z,70.96
2022-10-30T00:28:04.462Z,62.32
2022-10-30T00:30:30.929Z,73.10
2022-10-30T00:32:57.757Z,66.91
2022-10-30T00:35:24.398Z,71.55
2022-10-30T00:37:50.811Z,72.43
2022-10-30T00:40:19.367Z,70.57
2022-10-30T00:42:45.849Z,70.22
2022-10-30T00:45:14.443Z,68.79
2022-10-30T00:47:53.147Z,65.92
2022-10-30T00:53:03.086Z,70.32
2022-10-30T00:55:34.088Z,76.43
2022-10-30T00:58:02.966Z,71.28
2022-10-30T01:00:30.747Z,69.23
2022-10-30T01:02:58.784Z,70.64
2022-10-30T01:05:28.632Z,74.30
2022-10-30T01:07:55.260Z,65.18
2022-10-30T01:10:22.801Z,72.53
2022-10-30T01:12:51.571Z,68.52
2022-10-30T01:15:23.466Z,71.37
2022-10-30T01:18:21.733Z,65.73
2022-10-30T01:21:06.498Z,66.94
2022-10-30T01:23:43.111Z,67.62
2022-10-30T01:26:40.354Z,73.62
2022-10-30T01:29:35.402Z,65.64
2022-10-30T01:32:23.759Z,70.26
2022-10-30T01:34:59.447Z,70.98
2022-10-30T01:37:35.203Z,73.20
2022-10-30T01:40:09.205Z,63.01
2022-10-30T01:42:44.980Z,73.46
2022-10-30T01:45:58.296Z,70.97
2022-10-30T01:48:53.524Z,69.57
2022-10-30T01:51:22.926Z,70.33
2022-10-30T01:54:08.111Z,72.81
2022-10-30T01:56:53.145Z,71.81
2022-10-30T01:59:29.573Z,64.93
2022-10-30T02:01:56.457Z,74.00
2022-10-30T02:04:23.461Z,71.13
2022-10-30T02:06:50.885Z,70.12
2022-10-30T02:09:17.631Z,66.15
2022-10-30T02:11:46.678Z,72.10
2022-10-30T02:14:18.977Z,66.40
2022-10-30T02:16:51.375Z,74.00
2022-10-30T02:19:18.153Z,70.17
2022-10-30T02:21:44.749Z,70.69
2022-10-30T02:24:11.114Z,67.60
2022-10-30T02:26:38.152Z,73.28
2022-10-30T02:29:04.861Z,66.24
2022-10-30T02:31:31.342Z,72.32
2022-10-30T02:33:57.771Z,63.72
2022-10-30T02:36:25.107Z,72.35
2022-10-30T02:38:51.541Z,64.40
2022-10-30T02:41:18.000Z,73.60
2022-10-30T02:43:44.425Z,71.09
2022-10-30T02:46:10.837Z,67.12
2022-10-30T02:48:37.254Z,71.63
2022-10-30T02:51:04.667Z,70.21
2022-10-30T02:53:31.274Z,69.79
2022-10-30T02:56:03.863Z,75.74
2022-10-30T02:58:30.306Z,71.27
2022-10-30T03:00:56.747Z,71.13
2022-10-30T03:03:24.258Z,68.89
2022-10-30T03:05:50.828Z,72.25
2022-10-30T03:08:17.252Z,66.08
2022-10-30T03:10:43.759Z,72.61
2022-10-30T03:13:10.166Z,72.24
2022-10-30T03:15:36.589Z,65.90
2022-10-30T03:18:03.012Z,73.71
2022-10-30T03:20:29.425Z,74.89
2022-10-30T03:22:56.217Z,71.51
2022-10-30T03:25:23.914Z,65.20
2022-10-30T03:27:50.681Z,70.31
2022-10-30T03:30:17.238Z,71.77
2022-10-30T03:32:43.839Z,67.31
2022-10-30T03:35:10.309Z,73.56
2022-10-30T03:37:36.697Z,71.38
2022-10-30T03:40:03.286Z,65.71
2022-10-30T03:42:29.678Z,70.74
2022-10-30T03:44:56.092Z,72.71
2022-10-30T03:47:22.513Z,66.69
2022-10-30T03:49:48.972Z,74.79
2022-10-30T03:52:15.395Z,73.84
2022-10-30T03:54:41.775Z,71.54
2022-10-30T03:57:08.203Z,71.76
2022-10-30T03:59:34.628Z,71.04
2022-10-30T04:02:01.197Z,71.10
2022-10-30T04:04:27.726Z,68.65
2022-10-30T04:06:54.142Z,72.05
2022-10-30T04:09:20.553Z,71.43
2022-10-30T04:11:46.970Z,71.05
2022-10-30T04:14:13.399Z,72.30
2022-10-30T04:16:39.809Z,71.00
2022-10-30T04:19:06.234Z,68.14
2022-10-30T04:21:32.645Z,71.08
2022-10-30T04:23:59.130Z,71.04
2022-10-30T04:26:25.586Z,65.88
2022-10-30T04:28:52.051Z,68.42
2022-10-30T04:31:18.463Z,74.62
2022-10-30T04:33:44.995Z,72.57
2022-10-30T04:36:11.412Z,71.06
2022-10-30T04:38:37.831Z,71.22
2022-10-30T04:41:04.348Z,65.40
2022-10-30T04:43:30.785Z,73.18
2022-10-30T04:45:57.373Z,69.67
2022-10-30T04:48:23.854Z,71.97
2022-10-30T04:50:50.259Z,71.49
2022-10-30T04:53:18.739Z,71.79
2022-10-30T04:55:45.225Z,73.87
2022-10-30T04:58:12.456Z,65.93
2022-10-30T05:00:39.235Z,65.67
2022-10-30T05:03:05.643Z,74.96
2022-10-30T05:05:32.789Z,72.42
2022-10-30T05:07:59.637Z,66.29
2022-10-30T05:10:26.465Z,73.52
2022-10-30T05:12:54.288Z,68.60
2022-10-30T05:15:21.269Z,77.22
2022-10-30T05:17:51.729Z,72.98
2022-10-30T05:20:19.043Z,69.84
2022-10-30T05:22:45.803Z,71.37
2022-10-30T05:25:12.260Z,71.18
2022-10-30T05:27:38.715Z,66.91
2022-10-30T05:30:05.859Z,74.48
2022-10-30T05:32:32.261Z,71.92
2022-10-30T05:34:58.721Z,71.33
2022-10-30T05:37:25.267Z,63.12
2022-10-30T05:39:51.694Z,76.71
2022-10-30T05:42:18.089Z,72.31
2022-10-30T05:45:01.741Z,72.25
2022-10-30T05:47:28.907Z,71.46
2022-10-30T05:49:55.276Z,70.87
2022-10-30T05:52:21.671Z,71.55
2022-10-30T05:54:48.119Z,71.01
2022-10-30T05:57:14.586Z,71.39
2022-10-30T05:59:41.000Z,71.53
2022-10-30T06:02:07.647Z,70.88
2022-10-30T06:04:34.142Z,71.13
2022-10-30T06:07:00.573Z,67.46
2022-10-30T06:09:27.013Z,71.87
2022-10-30T06:11:53.885Z,70.87
2022-10-30T06:14:20.356Z,71.30
2022-10-30T06:16:47.883Z,71.23
2022-10-30T06:19:17.557Z,63.97
2022-10-30T06:21:46.089Z,72.51
2022-10-30T06:24:12.633Z,71.54
2022-10-30T06:26:39.473Z,68.52
2022-10-30T06:29:06.135Z,75.63
2022-10-30T06:31:32.551Z,77.25
2022-10-30T06:33:59.126Z,72.59
2022-10-30T06:36:25.572Z,68.51
2022-10-30T06:38:51.997Z,75.94
2022-10-30T06:41:18.425Z,77.44
2022-10-30T06:43:44.885Z,72.39
2022-10-30T06:46:11.435Z,66.97
2022-10-30T06:48:37.997Z,71.46
2022-10-30T06:51:04.451Z,72.13
2022-10-30T06:53:30.864Z,71.03
2022-10-30T06:55:59.170Z,71.04
2022-10-30T06:58:26.350Z,71.08
2022-10-30T07:00:53.115Z,76.30
2022-10-30T07:03:19.883Z,72.74
2022-10-30T07:05:46.878Z,76.19
2022-10-30T07:08:13.582Z,74.43
2022-10-30T07:10:40.270Z,71.97
2022-10-30T07:13:06.724Z,71.22
2022-10-30T07:15:33.195Z,70.58
2022-10-30T07:18:03.361Z,70.38
2022-10-30T07:20:33.007Z,71.21
2022-10-30T07:22:59.933Z,71.12
2022-10-30T07:25:26.597Z,71.34
2022-10-30T07:27:54.500Z,70.03
2022-10-30T07:30:23.897Z,70.10
2022-10-30T07:33:02.466Z,69.57
2022-10-30T07:35:29.741Z,69.13
2022-10-30T07:38:01.125Z,67.57
2022-10-30T07:40:27.589Z,70.00
2022-10-30T07:42:58.285Z,69.50
2022-10-30T07:45:25.370Z,66.18
2022-10-30T07:47:51.879Z,65.23
2022-10-30T07:50:18.483Z,64.91
2022-10-30T07:52:44.928Z,66.87
2022-10-30T07:55:11.380Z,62.87
2022-10-30T07:57:39.263Z,68.02
2022-10-30T08:00:11.343Z,60.98
2022-10-30T08:02:37.881Z,61.67
2022-10-30T08:05:05.908Z,64.64
2022-10-30T08:07:36.654Z,62.07
2022-10-30T08:10:04.626Z,61.41
2022-10-30T08:12:33.016Z,63.99
2022-10-30T08:14:59.952Z,56.82
2022-10-30T08:17:26.443Z,61.15
2022-10-30T08:19:52.857Z,56.69
2022-10-30T08:22:19.391Z,57.13
2022-10-30T08:24:45.813Z,54.90
2022-10-30T08:27:12.280Z,54.61
2022-10-30T08:29:38.711Z,54.81
2022-10-30T08:32:05.668Z,66.55
2022-10-30T08:34:32.528Z,65.84
2022-10-30T08:37:00.085Z,55.34
2022-10-30T08:39:26.574Z,55.60
2022-10-30T08:41:53.065Z,53.18
2022-10-30T08:44:19.475Z,53.89
2022-10-30T08:46:45.894Z,52.79
2022-10-30T08:49:12.323Z,50.28
2022-10-30T08:51:38.759Z,50.38
2022-10-30T08:54:05.229Z,50.74
2022-10-30T08:56:31.644Z,49.41
2022-10-30T08:58:58.148Z,48.30
2022-10-30T09:01:24.736Z,50.36
2022-10-30T09:03:51.252Z,49.07
2022-10-30T09:06:17.641Z,49.04
2022-10-30T09:08:44.107Z,44.13
2022-10-30T09:11:10.571Z,48.01
2022-10-30T09:13:37.028Z,46.82
2022-10-30T09:16:04.771Z,44.40
2022-10-30T09:18:31.285Z,44.02
2022-10-30T09:20:57.695Z,45.00
2022-10-30T09:23:24.141Z,45.20
2022-10-30T09:25:50.627Z,44.16
2022-10-30T09:28:17.049Z,43.36
2022-10-30T09:30:43.561Z,44.14
2022-10-30T09:33:10.201Z,41.33
2022-10-30T09:35:37.118Z,42.79
2022-10-30T09:38:03.696Z,43.17
2022-10-30T09:40:57.788Z,42.91
2022-10-30T09:44:03.856Z,41.42
2022-10-30T09:46:46.215Z,41.10
2022-10-30T09:49:15.519Z,41.29
2022-10-30T09:52:08.215Z,41.80
2022-10-30T09:54:46.142Z,39.94
2022-10-30T09:57:37.534Z,37.81
2022-10-30T10:00:13.134Z,38.71
2022-10-30T10:02:45.878Z,37.58
2022-10-30T10:05:23.471Z,38.00
2022-10-30T10:07:54.460Z,38.11
2022-10-30T10:10:37.201Z,45.40
2022-10-30T10:13:05.633Z,43.81
2022-10-30T10:15:53.935Z,44.54
2022-10-30T10:18:52.411Z,44.65
2022-10-30T10:21:24.562Z,43.54
2022-10-30T10:23:54.947Z,42.15
2022-10-30T10:26:50.476Z,39.91
2022-10-30T10:29:58.839Z,38.83
2022-10-30T10:32:28.663Z,37.65
2022-10-30T10:35:24.478Z,36.59
2022-10-30T10:38:10.141Z,35.17
2022-10-30T10:40:52.994Z,34.67
2022-10-30T10:43:44.328Z,34.86
2022-10-30T10:46:48.207Z,36.28
2022-10-30T10:49:50.908Z,35.46
2022-10-30T10:52:39.103Z,36.81
2022-10-30T10:55:15.622Z,40.93
2022-10-30T10:57:43.467Z,43.58
2022-10-30T11:00:28.147Z,42.78
2022-10-30T11:03:03.978Z,44.40
2022-10-30T11:05:46.587Z,42.93
2022-10-30T11:08:32.509Z,43.81
2022-10-30T11:11:04.643Z,42.03
2022-10-30T11:13:43.089Z,43.08
2022-10-30T11:16:24.090Z,39.81
2022-10-30T11:18:57.741Z,40.35
2022-10-30T11:21:26.595Z,43.22
2022-10-30T11:23:56.256Z,44.90
2022-10-30T11:26:23.027Z,43.75
2022-10-30T11:28:54.170Z,43.30
2022-10-30T11:31:34.686Z,45.14
2022-10-30T11:34:13.263Z,43.79
2022-10-30T11:36:39.659Z,46.08
2022-10-30T11:39:10.949Z,44.00
2022-10-30T11:41:39.107Z,45.56
2022-10-30T11:44:06.580Z,44.65
2022-10-30T11:46:35.699Z,44.82
2022-10-30T11:49:02.455Z,47.34
2022-10-30T11:51:40.016Z,44.02
2022-10-30T11:54:07.358Z,44.56
2022-10-30T11:56:35.403Z,45.89
2022-10-30T11:59:04.709Z,42.12
2022-10-30T12:01:33.079Z,42.63
2022-10-30T12:04:34.745Z,42.13
2022-10-30T12:07:19.898Z,45.70
2022-10-30T12:09:48.111Z,44.81
2022-10-30T12:12:28.508Z,41.49
2022-10-30T12:14:55.425Z,42.62
2022-10-30T12:17:22.809Z,42.59
2022-10-30T12:19:53.296Z,41.85
2022-10-30T12:22:30.692Z,51.35
2022-10-30T12:25:00.138Z,45.38
2022-10-30T12:27:27.020Z,49.56
2022-10-30T12:30:17.042Z,43.40
2022-10-30T12:32:58.859Z,43.13
2022-10-30T12:36:07.393Z,43.58
2022-10-30T12:38:38.935Z,46.47
2022-10-30T12:41:24.749Z,51.61
2022-10-30T12:44:13.622Z,54.80
2022-10-30T12:46:51.840Z,58.96
2022-10-30T12:49:40.828Z,51.49
2022-10-30T12:52:43.409Z,53.11
2022-10-30T12:55:35.264Z,60.33
2022-10-30T12:58:20.466Z,60.08
2022-10-30T13:00:58.562Z,57.57
2022-10-30T13:03:56.116Z,50.16
2022-10-30T13:06:33.947Z,44.30
2022-10-30T13:09:09.263Z,48.87
2022-10-30T13:11:54.149Z,55.84
2022-10-30T13:14:29.504Z,45.17
2022-10-30T13:16:55.946Z,42.79
2022-10-30T13:19:23.691Z,43.74
2022-10-30T13:21:56.948Z,42.80
2022-10-30T13:24:42.914Z,44.09
2022-10-30T13:27:29.586Z,44.56
2022-10-30T13:30:19.233Z,50.94
2022-10-30T13:33:04.858Z,49.97
2022-10-30T13:35:36.959Z,50.23
2022-10-30T13:38:31.819Z,52.67
2022-10-30T13:41:08.407Z,50.44
2022-10-30T13:44:17.276Z,48.00
2022-10-30T13:47:08.936Z,52.22
2022-10-30T13:49:49.782Z,49.98
2022-10-30T13:52:18.961Z,50.22
2022-10-30T13:55:05.644Z,51.79
2022-10-30T13:57:35.021Z,49.76
2022-10-30T14:00:16.808Z,52.09
2022-10-30T14:03:02.716Z,51.70
2022-10-30T14:05:48.152Z,51.47
2022-10-30T14:08:26.237Z,52.95
2022-10-30T14:10:59.511Z,54.89
2022-10-30T14:13:43.746Z,55.62
2022-10-30T14:16:35.051Z,54.39
2022-10-30T14:19:19.803Z,55.59
2022-10-30T14:21:55.704Z,57.08
2022-10-30T14:24:35.024Z,58.09
2022-10-30T14:27:04.185Z,53.31
2022-10-30T14:29:33.980Z,58.75
2022-10-30T14:32:01.481Z,57.21
2022-10-30T14:34:44.938Z,58.01
2022-10-30T14:37:12.826Z,58.89
2022-10-30T14:39:41.736Z,59.89
2022-10-30T14:42:26.299Z,62.18
2022-10-30T14:45:09.157Z,61.75
2022-10-30T14:47:54.088Z,59.94
2022-10-30T14:50:26.681Z,59.33
2022-10-30T14:53:09.912Z,63.24
2022-10-30T14:56:13.812Z,63.49
2022-10-30T14:58:41.051Z,65.17
2022-10-30T15:01:27.517Z,65.09
2022-10-30T15:04:10.236Z,65.85
2022-10-30T15:06:39.650Z,65.76
2022-10-30T15:09:21.214Z,66.15
2022-10-30T15:12:06.165Z,63.92
2022-10-30T15:14:53.473Z,62.91
2022-10-30T15:17:32.956Z,64.51
2022-10-30T15:20:04.744Z,64.33
2022-10-30T15:22:33.996Z,65.83
2022-10-30T15:25:03.076Z,65.83
2022-10-30T15:27:32.921Z,65.03
2022-10-30T15:30:02.190Z,67.21
2022-10-30T15:32:28.708Z,67.66
2022-10-30T15:35:04.161Z,67.61
2022-10-30T15:37:31.639Z,67.15
2022-10-30T15:40:18.421Z,64.44
2022-10-30T15:42:47.975Z,66.70
2022-10-30T15:45:21.942Z,65.98
2022-10-30T15:47:56.988Z,64.20
2022-10-30T15:50:23.866Z,67.63
2022-10-30T15:52:50.890Z,66.49
2022-10-30T15:55:31.154Z,67.54
2022-10-30T15:58:03.942Z,68.43
2022-10-30T16:00:40.089Z,67.53
2022-10-30T16:03:12.550Z,68.71
2022-10-30T16:05:39.047Z,69.01
2022-10-30T16:08:14.242Z,68.92
2022-10-30T16:10:42.822Z,69.29
2022-10-30T16:13:22.881Z,64.41
2022-10-30T16:15:50.207Z,66.52
2022-10-30T16:18:18.749Z,70.03
2022-10-30T16:20:49.739Z,69.33
2022-10-30T16:23:17.907Z,69.04
2022-10-30T16:25:47.275Z,69.54
2022-10-30T16:28:46.946Z,65.00
2022-10-30T16:31:15.992Z,69.03
2022-10-30T16:33:44.576Z,69.74
2022-10-30T16:36:16.687Z,69.74
2022-10-30T16:38:48.074Z,62.90
2022-10-30T16:41:14.957Z,70.70
2022-10-30T16:43:48.291Z,71.71
2022-10-30T16:46:14.712Z,63.60
2022-10-30T16:48:52.661Z,62.77
2022-10-30T16:51:21.434Z,63.83
2022-10-30T16:53:50.204Z,70.79
2022-10-30T16:56:23.899Z,70.04
2022-10-30T16:58:52.011Z,70.07
2022-10-30T17:01:22.206Z,70.13
2022-10-30T17:03:49.735Z,69.86
2022-10-30T17:06:50.322Z,69.90
2022-10-30T17:09:27.577Z,70.46
2022-10-30T17:12:14.805Z,70.29
2022-10-30T17:15:02.528Z,70.24
2022-10-30T17:17:35.146Z,70.64
2022-10-30T17:20:05.510Z,69.50
2022-10-30T17:22:32.973Z,69.76
2022-10-30T17:24:59.916Z,70.09
2022-10-30T17:27:31.608Z,70.25
2022-10-30T17:29:58.137Z,69.13
2022-10-30T17:32:27.220Z,69.26
2022-10-30T17:35:01.930Z,69.71
2022-10-30T17:37:28.871Z,70.25
2022-10-30T17:39:55.278Z,69.93
2022-10-30T17:42:21.845Z,70.08
2022-10-30T17:44:48.253Z,70.24
2022-10-30T17:47:17.218Z,68.99
2022-10-30T17:49:44.232Z,69.84
2022-10-30T17:52:15.935Z,68.46
2022-10-30T17:54:42.843Z,65.18
2022-10-30T17:57:15.377Z,71.70
2022-10-30T17:59:43.011Z,70.44
2022-10-30T18:02:20.901Z,69.86
2022-10-30T18:04:48.228Z,61.27
2022-10-30T18:07:16.033Z,70.05
2022-10-30T18:09:43.274Z,70.48
2022-10-30T18:12:15.301Z,70.09
2022-10-30T18:14:43.120Z,69.90
2022-10-30T18:17:10.276Z,69.83
2022-10-30T18:19:36.670Z,69.45
2022-10-30T18:22:03.390Z,69.70
2022-10-30T18:24:30.000Z,67.85
2022-10-30T18:26:56.788Z,59.40
2022-10-30T18:29:23.615Z,69.02
2022-10-30T18:31:50.099Z,70.68
2022-10-30T18:34:21.003Z,72.96
2022-10-30T18:36:48.121Z,70.55
2022-10-30T18:39:14.572Z,69.57
2022-10-30T18:41:43.674Z,69.71
2022-10-30T18:44:19.401Z,69.59
2022-10-30T18:46:46.348Z,69.73
2022-10-30T18:49:12.961Z,61.05
2022-10-30T18:51:40.153Z,70.66
2022-10-30T18:54:16.798Z,60.65
2022-10-30T18:56:43.498Z,69.75
2022-10-30T18:59:09.922Z,69.69
2022-10-30T19:01:36.602Z,68.88
2022-10-30T19:04:04.311Z,69.21
2022-10-30T19:06:32.817Z,69.17
2022-10-30T19:08:59.304Z,69.39
2022-10-30T19:11:26.811Z,69.41
2022-10-30T19:13:54.741Z,62.01
2022-10-30T19:16:24.368Z,71.98
2022-10-30T19:18:50.821Z,70.79
2022-10-30T19:21:24.919Z,69.83
2022-10-30T19:23:51.731Z,69.47
2022-10-30T19:26:18.130Z,69.60
2022-10-30T19:28:45.631Z,69.49
2022-10-30T19:31:17.238Z,68.96
2022-10-30T19:33:44.496Z,63.54
2022-10-30T19:36:26.302Z,66.03
2022-10-30T19:38:52.810Z,72.64
2022-10-30T19:41:19.462Z,72.49
2022-10-30T19:43:45.909Z,70.05
2022-10-30T19:46:14.674Z,68.85
2022-10-30T19:48:56.639Z,68.70
2022-10-30T19:51:23.492Z,68.88
2022-10-30T19:53:52.513Z,61.60
2022-10-30T19:56:20.128Z,69.00
2022-10-30T19:58:46.570Z,68.42
2022-10-30T20:01:13.557Z,69.36
2022-10-30T20:03:40.015Z,61.85
2022-10-30T20:06:06.762Z,71.34
2022-10-30T20:08:33.234Z,62.48
2022-10-30T20:11:00.825Z,69.93
2022-10-30T20:13:28.424Z,69.36
2022-10-30T20:15:56.725Z,69.14
2022-10-30T20:18:30.249Z,72.33
2022-10-30T20:20:58.784Z,69.61
2022-10-30T20:23:27.421Z,60.29
2022-10-30T20:25:58.193Z,68.75
2022-10-30T20:28:28.285Z,68.34
2022-10-30T20:30:55.630Z,73.59
2022-10-30T20:33:23.169Z,72.95
2022-10-30T20:35:50.799Z,73.08
2022-10-30T20:38:20.088Z,69.84
2022-10-30T20:40:48.161Z,69.05
2022-10-30T20:43:31.294Z,60.40
2022-10-30T20:45:59.169Z,64.28
2022-10-30T20:48:26.770Z,70.71
2022-10-30T20:50:54.363Z,69.25
2022-10-30T20:53:20.787Z,68.61
2022-10-30T20:55:47.180Z,68.67
2022-10-30T20:58:13.834Z,68.29
2022-10-30T21:00:40.515Z,68.68
2022-10-30T21:03:07.391Z,68.75
2022-10-30T21:05:43.675Z,66.81
2022-10-30T21:08:12.028Z,75.10
2022-10-30T21:10:39.175Z,69.87
2022-10-30T21:13:08.773Z,69.21
2022-10-30T21:15:42.535Z,71.33
2022-10-30T21:18:10.602Z,69.10
2022-10-30T21:20:37.586Z,68.45
2022-10-30T21:23:04.643Z,68.61
2022-10-30T21:25:32.382Z,66.12
2022-10-30T21:27:59.277Z,62.70
2022-10-30T21:30:25.776Z,71.98
2022-10-30T21:32:52.222Z,67.08
2022-10-30T21:35:19.378Z,70.05
2022-10-30T21:37:45.839Z,74.28
2022-10-30T21:40:12.907Z,76.41
2022-10-30T21:42:39.331Z,72.46
2022-10-30T21:45:06.658Z,69.23
2022-10-30T21:47:33.166Z,68.81
2022-10-30T21:49:59.601Z,68.87
2022-10-30T21:52:26.062Z,65.03
2022-10-30T21:54:52.557Z,70.21
2022-10-30T21:57:18.953Z,68.29
2022-10-30T21:59:45.387Z,68.98
2022-10-30T22:02:15.375Z,61.34
2022-10-30T22:04:41.948Z,68.83
2022-10-30T22:07:08.379Z,69.22
2022-10-30T22:09:34.937Z,69.84
2022-10-30T22:12:01.377Z,69.13
2022-10-30T22:14:28.455Z,68.98
2022-10-30T22:16:54.875Z,60.69
2022-10-30T22:19:21.264Z,69.94
2022-10-30T22:21:47.655Z,67.51
2022-10-30T22:24:14.447Z,75.68
2022-10-30T22:26:40.878Z,68.14
2022-10-30T22:29:07.317Z,72.53
2022-10-30T22:31:33.865Z,68.65
2022-10-30T22:34:01.256Z,69.52
2022-10-30T22:36:30.978Z,68.89
2022-10-30T22:39:07.274Z,68.95
2022-10-30T22:41:37.596Z,68.74
2022-10-30T22:44:07.945Z,69.42
2022-10-30T22:46:35.337Z,70.96
2022-10-30T22:49:01.795Z,73.25
2022-10-30T22:51:28.189Z,70.00
2022-10-30T22:54:00.221Z,69.66
2022-10-30T22:56:29.513Z,69.14
2022-10-30T22:58:56.519Z,73.99
2022-10-30T23:01:27.254Z,70.10
2022-10-30T23:03:58.702Z,69.13
2022-10-30T23:06:26.264Z,69.00
2022-10-30T23:08:54.638Z,70.15
2022-10-30T23:11:21.804Z,69.72
2022-10-30T23:13:49.086Z,78.86
2022-10-30T23:16:18.551Z,71.39
2022-10-30T23:18:45.489Z,69.54
2022-10-30T23:21:14.812Z,68.80
2022-10-30T23:23:42.238Z,68.90
2022-10-30T23:26:17.654Z,71.01
2022-10-30T23:28:45.456Z,70.22
2022-10-30T23:31:33.339Z,70.80
2022-10-30T23:34:02.148Z,69.42
2022-10-30T23:36:28.812Z,70.02
2022-10-30T23:38:57.434Z,69.34
2022-10-30T23:41:27.386Z,74.39
2022-10-30T23:43:59.099Z,69.93
2022-10-30T23:46:26.435Z,69.30
2022-10-30T23:48:52.900Z,69.28
2022-10-30T23:51:19.990Z,69.62
2022-10-30T23:53:47.043Z,69.24
2022-10-30T23:56:13.777Z,69.58
2022-10-30T23:58:43.768Z,69.54
